createdAt,value
2019-01-13T00:01:04.312Z,97808.49
2019-01-13T00:02:49.946Z,97816.61
2019-01-13T00:04:36.216Z,97822.03
2019-01-13T00:06:13.319Z,97811.59
2019-01-13T00:07:54.103Z,97825.34
2019-01-13T00:09:31.006Z,97827.27
2019-01-13T00:11:06.967Z,97828.83
2019-01-13T00:13:04.166Z,97826.89
2019-01-13T00:14:39.954Z,97829.22
2019-01-13T00:16:16.074Z,97828.65
2019-01-13T00:17:54.981Z,97830.00
2019-01-13T00:19:35.373Z,97838.70
2019-01-13T00:21:10.813Z,97841.98
2019-01-13T00:22:48.042Z,97842.77
2019-01-13T00:24:24.008Z,97848.39
2019-01-13T00:25:59.544Z,97847.61
2019-01-13T00:27:34.999Z,97848.78
2019-01-13T00:29:11.996Z,97850.14
2019-01-13T00:30:50.500Z,97854.98
2019-01-13T00:32:27.609Z,97853.63
2019-01-13T00:34:02.955Z,97851.70
2019-01-13T00:35:38.708Z,97858.84
2019-01-13T00:37:15.631Z,97852.84
2019-01-13T00:38:57.338Z,97850.34
2019-01-13T00:40:33.111Z,97861.17
2019-01-13T00:42:15.155Z,97854.60
2019-01-13T00:43:58.883Z,97859.24
2019-01-13T00:45:39.562Z,97857.31
2019-01-13T00:47:22.280Z,97861.77
2019-01-13T00:49:05.694Z,97862.55
2019-01-13T00:50:47.383Z,97860.22
2019-01-13T00:52:24.731Z,97851.52
2019-01-13T00:54:02.993Z,97868.55
2019-01-13T00:55:44.387Z,97870.68
2019-01-13T00:57:23.022Z,97870.11
2019-01-13T00:58:58.580Z,97871.45
2019-01-13T01:00:36.402Z,97869.91
2019-01-13T01:02:14.273Z,97865.64
2019-01-13T01:03:51.634Z,97864.48
2019-01-13T01:05:27.118Z,97870.48
2019-01-13T01:07:02.413Z,97872.61
2019-01-13T01:08:41.161Z,97874.17
2019-01-13T01:10:18.898Z,97869.53
2019-01-13T01:11:56.134Z,97862.75
2019-01-13T01:13:32.481Z,97857.13
2019-01-13T01:15:09.479Z,97857.91
2019-01-13T01:16:44.997Z,97857.13
2019-01-13T01:18:25.427Z,97862.55
2019-01-13T01:20:01.573Z,97865.64
2019-01-13T01:21:37.394Z,97860.02
2019-01-13T01:23:14.350Z,97866.79
2019-01-13T01:24:49.839Z,97858.47
2019-01-13T01:26:27.447Z,97867.17
2019-01-13T01:28:03.126Z,97866.02
2019-01-13T01:29:38.967Z,97856.91
2019-01-13T01:31:16.023Z,97871.43
2019-01-13T01:32:51.695Z,97864.45
2019-01-13T01:34:27.469Z,97869.09
2019-01-13T01:36:03.171Z,97864.45
2019-01-13T01:37:38.879Z,97868.14
2019-01-13T01:39:14.139Z,97871.63
2019-01-13T01:40:49.963Z,97868.92
2019-01-13T01:42:25.321Z,97871.23
2019-01-13T01:44:00.761Z,97867.94
2019-01-13T01:45:36.016Z,97871.05
2019-01-13T01:47:11.362Z,97865.06
2019-01-13T01:48:46.836Z,97867.19
2019-01-13T01:50:22.226Z,97867.19
2019-01-13T01:51:57.530Z,97864.89
2019-01-13T01:53:33.116Z,97864.13
2019-01-13T01:55:11.557Z,97867.79
2019-01-13T01:56:47.890Z,97870.12
2019-01-13T01:58:23.821Z,97877.47
2019-01-13T01:59:59.645Z,97870.33
2019-01-13T02:01:40.551Z,97878.08
2019-01-13T02:03:17.349Z,97873.44
2019-01-13T02:04:53.295Z,97874.21
2019-01-13T02:06:30.575Z,97870.15
2019-01-13T02:08:06.070Z,97863.58
2019-01-13T02:09:41.719Z,97869.19
2019-01-13T02:11:19.944Z,97866.48
2019-01-13T02:12:55.360Z,97868.41
2019-01-13T02:14:31.020Z,97864.75
2019-01-13T02:16:06.306Z,97874.06
2019-01-13T02:17:44.533Z,97872.70
2019-01-13T02:19:22.283Z,97874.64
2019-01-13T02:20:57.770Z,97872.70
2019-01-13T02:22:35.768Z,97873.66
2019-01-13T02:24:11.223Z,97875.61
2019-01-13T02:25:50.917Z,97870.77
2019-01-13T02:27:26.475Z,97868.23
2019-01-13T02:29:05.440Z,97856.81
2019-01-13T02:30:48.810Z,97858.38
2019-01-13T02:32:17.853Z,97857.39
2019-01-13T02:33:54.103Z,97838.63
2019-01-13T02:35:35.228Z,97859.34
2019-01-13T02:37:13.116Z,97844.64
2019-01-13T02:38:49.366Z,97845.80
2019-01-13T02:40:24.775Z,97849.86
2019-01-13T02:42:01.357Z,97860.33
2019-01-13T02:43:37.143Z,97850.06
2019-01-13T02:45:15.631Z,97859.55
2019-01-13T02:46:53.613Z,97850.06
2019-01-13T02:48:29.870Z,97848.91
2019-01-13T02:50:06.601Z,97839.05
2019-01-13T02:51:42.456Z,97841.36
2019-01-13T02:53:17.806Z,97830.11
2019-01-13T02:54:53.503Z,97826.83
2019-01-13T02:56:28.749Z,97828.96
2019-01-13T02:58:05.907Z,97826.65
2019-01-13T02:59:41.588Z,97829.94
2019-01-13T03:01:16.904Z,97848.91
2019-01-13T03:02:52.261Z,97847.73
2019-01-13T03:04:27.844Z,97852.20
2019-01-13T03:06:03.358Z,97840.38
2019-01-13T03:07:39.778Z,97844.64
2019-01-13T03:09:15.436Z,97837.87
2019-01-13T03:10:51.031Z,97841.36
2019-01-13T03:12:29.473Z,97844.84
2019-01-13T03:14:04.808Z,97843.09
2019-01-13T03:15:41.223Z,97854.13
2019-01-13T03:17:19.475Z,97855.11
2019-01-13T03:18:57.000Z,97852.39
2019-01-13T03:20:33.968Z,97854.91
2019-01-13T03:22:12.543Z,97855.30
2019-01-13T03:23:53.705Z,97855.30
2019-01-13T03:25:29.518Z,97853.95
2019-01-13T03:27:06.636Z,97856.46
2019-01-13T03:28:46.247Z,97847.95
2019-01-13T03:30:24.163Z,97848.73
2019-01-13T03:31:59.977Z,97843.31
2019-01-13T03:33:36.747Z,97845.24
2019-01-13T03:35:12.791Z,97841.38
2019-01-13T03:36:49.226Z,97854.75
2019-01-13T03:38:25.088Z,97856.68
2019-01-13T03:40:03.355Z,97849.33
2019-01-13T03:41:49.151Z,97841.00
2019-01-13T03:43:29.255Z,97837.71
2019-01-13T03:45:05.852Z,97829.58
2019-01-13T03:46:43.005Z,97833.64
2019-01-13T03:48:20.942Z,97831.51
2019-01-13T03:49:56.463Z,97821.45
2019-01-13T03:51:31.781Z,97814.67
2019-01-13T03:53:08.265Z,97812.73
2019-01-13T03:54:54.573Z,97806.34
2019-01-13T03:56:31.165Z,97812.54
2019-01-13T03:58:06.746Z,97807.52
2019-01-13T03:59:43.238Z,97812.36
2019-01-13T04:01:18.878Z,97804.61
2019-01-13T04:02:54.202Z,97789.32
2019-01-13T04:04:29.594Z,97791.42
2019-01-13T04:06:05.399Z,97790.67
2019-01-13T04:07:40.606Z,97788.55
2019-01-13T04:09:15.787Z,97785.83
2019-01-13T04:10:51.028Z,97783.13
2019-01-13T04:12:26.380Z,97781.19
2019-01-13T04:14:01.999Z,97779.42
2019-01-13T04:15:40.221Z,97786.40
2019-01-13T04:17:15.719Z,97780.98
2019-01-13T04:18:51.202Z,97776.33
2019-01-13T04:20:27.000Z,97766.27
2019-01-13T04:22:02.606Z,97769.55
2019-01-13T04:23:38.409Z,97766.06
2019-01-13T04:25:13.659Z,97760.27
2019-01-13T04:26:48.906Z,97766.66
2019-01-13T04:28:24.850Z,97747.69
2019-01-13T04:30:00.258Z,97748.47
2019-01-13T04:31:35.700Z,97741.89
2019-01-13T04:33:11.077Z,97744.99
2019-01-13T04:34:46.715Z,97746.92
2019-01-13T04:36:26.952Z,97748.48
2019-01-13T04:38:02.540Z,97747.90
2019-01-13T04:39:37.836Z,97742.09
2019-01-13T04:41:14.908Z,97742.09
2019-01-13T04:42:50.540Z,97752.16
2019-01-13T04:44:26.303Z,97748.30
2019-01-13T04:46:01.506Z,97740.33
2019-01-13T04:47:36.671Z,97740.33
2019-01-13T04:49:13.146Z,97743.81
2019-01-13T04:50:48.468Z,97739.95
2019-01-13T04:52:24.044Z,97744.79
2019-01-13T04:54:01.386Z,97738.02
2019-01-13T04:55:36.736Z,97723.68
2019-01-13T04:57:12.037Z,97720.39
2019-01-13T04:58:47.255Z,97718.45
2019-01-13T05:00:23.740Z,97715.75
2019-01-13T05:01:59.044Z,97709.94
2019-01-13T05:03:34.225Z,97710.72
2019-01-13T05:05:09.931Z,97707.23
2019-01-13T05:06:45.741Z,97703.74
2019-01-13T05:08:21.130Z,97710.72
2019-01-13T05:09:56.867Z,97705.88
2019-01-13T05:11:32.188Z,97700.06
2019-01-13T05:13:07.717Z,97692.70
2019-01-13T05:14:44.838Z,97674.70
2019-01-13T05:16:20.493Z,97668.90
2019-01-13T05:17:56.363Z,97662.51
2019-01-13T05:19:31.667Z,97659.60
2019-01-13T05:21:06.866Z,97648.75
2019-01-13T05:22:43.626Z,97634.81
2019-01-13T05:24:18.837Z,97638.11
2019-01-13T05:25:53.997Z,97636.17
2019-01-13T05:27:30.675Z,97644.89
2019-01-13T05:29:06.044Z,97647.80
2019-01-13T05:30:43.233Z,97635.75
2019-01-13T05:32:29.683Z,97632.88
2019-01-13T05:34:06.924Z,97631.69
2019-01-13T05:35:42.712Z,97626.27
2019-01-13T05:37:18.224Z,97634.59
2019-01-13T05:38:54.802Z,97619.88
2019-01-13T05:40:39.350Z,97629.37
2019-01-13T05:42:26.274Z,97627.23
2019-01-13T05:44:01.485Z,97617.74
2019-01-13T05:45:37.118Z,97611.55
2019-01-13T05:47:12.400Z,97613.09
2019-01-13T05:48:47.567Z,97600.13
2019-01-13T05:50:27.249Z,97593.34
2019-01-13T05:52:04.635Z,97597.99
2019-01-13T05:53:40.193Z,97590.44
2019-01-13T05:55:16.000Z,97594.31
2019-01-13T05:56:52.438Z,97594.12
2019-01-13T05:58:27.677Z,97591.98
2019-01-13T06:00:04.264Z,97591.02
2019-01-13T06:01:39.621Z,97584.82
2019-01-13T06:03:15.161Z,97578.63
2019-01-13T06:04:50.867Z,97575.52
2019-01-13T06:06:27.813Z,97573.00
2019-01-13T06:08:03.515Z,97566.23
2019-01-13T06:09:39.405Z,97569.72
2019-01-13T06:11:15.150Z,97563.91
2019-01-13T06:12:50.690Z,97562.35
2019-01-13T06:14:25.973Z,97550.73
2019-01-13T06:16:01.568Z,97563.91
2019-01-13T06:17:37.746Z,97546.86
2019-01-13T06:19:13.340Z,97553.25
2019-01-13T06:20:48.959Z,97555.96
2019-01-13T06:22:25.579Z,97546.47
2019-01-13T06:24:03.596Z,97551.70
2019-01-13T06:25:38.835Z,97547.83
2019-01-13T06:27:14.292Z,97544.34
2019-01-13T06:28:49.610Z,97554.02
2019-01-13T06:32:23.836Z,97556.73
2019-01-13T06:33:59.480Z,97554.22
2019-01-13T06:35:38.788Z,97553.05
2019-01-13T06:37:15.304Z,97547.24
2019-01-13T06:38:50.689Z,97554.99
2019-01-13T06:40:26.409Z,97556.92
2019-01-13T06:42:03.868Z,97553.64
2019-01-13T06:43:41.510Z,97555.54
2019-01-13T06:45:28.395Z,97550.12
2019-01-13T06:47:03.616Z,97550.70
2019-01-13T06:48:39.959Z,97542.36
2019-01-13T06:50:15.949Z,97551.86
2019-01-13T06:51:51.995Z,97553.41
2019-01-13T06:53:28.945Z,97556.89
2019-01-13T06:55:04.364Z,97555.73
2019-01-13T06:56:40.158Z,97551.66
2019-01-13T06:58:19.325Z,97555.92
2019-01-13T06:59:56.638Z,97553.41
2019-01-13T07:01:33.754Z,97545.84
2019-01-13T07:03:11.609Z,97557.09
2019-01-13T07:04:50.550Z,97551.66
2019-01-13T07:06:30.943Z,97558.05
2019-01-13T07:08:08.958Z,97560.18
2019-01-13T07:09:45.081Z,97563.09
2019-01-13T07:11:22.060Z,97562.31
2019-01-13T07:12:59.651Z,97568.67
2019-01-13T07:14:36.502Z,97559.38
2019-01-13T07:16:12.976Z,97558.60
2019-01-13T07:17:51.879Z,97562.86
2019-01-13T07:19:29.578Z,97570.41
2019-01-13T07:21:05.224Z,97567.89
2019-01-13T07:22:46.028Z,97570.41
2019-01-13T07:24:21.456Z,97574.87
2019-01-13T07:25:57.111Z,97566.73
2019-01-13T07:27:32.868Z,97564.20
2019-01-13T07:29:08.600Z,97575.45
2019-01-13T07:30:44.021Z,97574.28
2019-01-13T07:32:19.677Z,97574.09
2019-01-13T07:33:55.880Z,97566.89
2019-01-13T07:35:31.497Z,97578.90
2019-01-13T07:37:07.091Z,97570.18
2019-01-13T07:38:42.985Z,97566.11
2019-01-13T07:40:22.825Z,97564.75
2019-01-13T07:41:58.962Z,97567.08
2019-01-13T07:43:34.984Z,97556.80
2019-01-13T07:45:13.793Z,97552.34
2019-01-13T07:46:49.223Z,97552.14
2019-01-13T07:48:24.555Z,97562.22
2019-01-13T07:49:59.842Z,97558.69
2019-01-13T07:51:35.090Z,97551.91
2019-01-13T07:53:11.939Z,97547.06
2019-01-13T07:54:47.287Z,97542.80
2019-01-13T07:56:22.643Z,97541.82
2019-01-13T07:58:00.433Z,97546.27
2019-01-13T07:59:36.382Z,97541.03
2019-01-13T08:01:12.119Z,97541.03
2019-01-13T08:02:47.528Z,97536.57
2019-01-13T08:04:23.197Z,97523.98
2019-01-13T08:05:58.880Z,97533.67
2019-01-13T08:07:34.581Z,97530.75
2019-01-13T08:09:10.845Z,97532.11
2019-01-13T08:10:46.066Z,97535.17
2019-01-13T08:12:21.317Z,97539.44
2019-01-13T08:13:56.685Z,97539.25
2019-01-13T08:15:34.453Z,97534.78
2019-01-13T08:17:13.070Z,97534.20
2019-01-13T08:18:51.091Z,97530.52
2019-01-13T08:20:31.716Z,97517.33
2019-01-13T08:22:11.569Z,97519.84
2019-01-13T08:23:48.323Z,97524.48
2019-01-13T08:25:24.859Z,97517.70
2019-01-13T08:27:03.338Z,97514.21
2019-01-13T08:28:43.065Z,97512.85
2019-01-13T08:30:19.522Z,97510.88
2019-01-13T08:31:55.881Z,97499.03
2019-01-13T08:33:40.539Z,97506.02
2019-01-13T08:35:16.905Z,97492.25
2019-01-13T08:36:52.686Z,97479.83
2019-01-13T08:38:28.961Z,97484.28
2019-01-13T08:40:11.813Z,97473.80
2019-01-13T08:41:47.040Z,97471.86
2019-01-13T08:43:24.145Z,97473.16
2019-01-13T08:45:03.989Z,97475.88
2019-01-13T08:46:41.426Z,97472.77
2019-01-13T08:48:18.171Z,97456.48
2019-01-13T08:49:57.955Z,97453.95
2019-01-13T08:51:36.280Z,97452.01
2019-01-13T08:53:14.490Z,97448.89
2019-01-13T08:54:50.488Z,97442.27
2019-01-13T08:56:27.695Z,97446.73
2019-01-13T08:58:18.214Z,97446.88
2019-01-13T08:59:56.047Z,97447.66
2019-01-13T09:01:35.929Z,97439.11
2019-01-13T09:03:12.387Z,97444.55
2019-01-13T09:04:49.948Z,97443.38
2019-01-13T09:06:28.335Z,97444.15
2019-01-13T09:08:12.428Z,97449.00
2019-01-13T09:09:50.296Z,97445.50
2019-01-13T09:11:31.806Z,97442.98
2019-01-13T09:13:08.695Z,97450.54
2019-01-13T09:14:47.275Z,97433.27
2019-01-13T09:16:24.540Z,97434.03
2019-01-13T09:18:01.767Z,97433.45
2019-01-13T09:19:37.082Z,97425.48
2019-01-13T09:21:20.239Z,97423.55
2019-01-13T09:23:04.272Z,97421.36
2019-01-13T09:25:07.656Z,97407.20
2019-01-13T09:26:51.093Z,97427.17
2019-01-13T09:28:26.448Z,97416.48
2019-01-13T09:30:04.398Z,97416.28
2019-01-13T09:31:45.862Z,97405.41
2019-01-13T09:33:21.394Z,97404.05
2019-01-13T09:34:59.767Z,97407.55
2019-01-13T09:36:39.479Z,97406.19
2019-01-13T09:38:20.191Z,97401.71
2019-01-13T09:40:06.374Z,97397.64
2019-01-13T09:41:47.868Z,97395.88
2019-01-13T09:43:31.744Z,97396.65
2019-01-13T09:45:16.551Z,97398.97
2019-01-13T09:46:54.241Z,97403.23
2019-01-13T09:48:32.046Z,97401.44
2019-01-13T09:50:21.415Z,97388.63
2019-01-13T09:51:59.333Z,97397.37
2019-01-13T09:53:35.684Z,97393.66
2019-01-13T09:55:24.818Z,97395.80
2019-01-13T09:57:02.683Z,97391.13
2019-01-13T09:58:46.801Z,97394.03
2019-01-13T10:00:26.994Z,97398.33
2019-01-13T10:02:12.231Z,97396.20
2019-01-13T10:03:48.384Z,97386.28
2019-01-13T10:05:31.098Z,97391.13
2019-01-13T10:07:10.569Z,97392.09
2019-01-13T10:08:52.052Z,97397.34
2019-01-13T10:10:36.611Z,97397.53
2019-01-13T10:12:22.099Z,97399.84
2019-01-13T10:14:12.738Z,97392.86
2019-01-13T10:15:59.394Z,97391.69
2019-01-13T10:17:37.817Z,97383.14
2019-01-13T10:19:45.575Z,97372.09
2019-01-13T10:21:40.841Z,97369.55
2019-01-13T10:23:41.375Z,97362.76
2019-01-13T10:25:31.178Z,97376.50
2019-01-13T10:29:14.331Z,97348.74
2019-01-13T10:31:03.142Z,97342.72
2019-01-13T10:32:35.498Z,97356.86
2019-01-13T10:34:16.585Z,97360.53
2019-01-13T10:35:53.802Z,97365.20
2019-01-13T10:37:29.552Z,97367.52
2019-01-13T10:39:13.579Z,97383.61
2019-01-13T10:40:52.744Z,97377.21
2019-01-13T10:42:28.746Z,97393.52
2019-01-13T10:44:04.458Z,97381.88
2019-01-13T10:45:41.348Z,97384.19
2019-01-13T10:47:24.753Z,97384.78
2019-01-13T10:49:00.231Z,97383.23
2019-01-13T10:50:35.782Z,97363.41
2019-01-13T10:52:12.745Z,97373.32
2019-01-13T10:53:56.002Z,97365.75
2019-01-13T10:55:31.332Z,97358.96
2019-01-13T10:57:08.489Z,97352.35
2019-01-13T10:58:45.464Z,97355.47
2019-01-13T11:00:35.871Z,97366.52
2019-01-13T11:02:16.281Z,97347.10
2019-01-13T11:04:00.594Z,97340.70
2019-01-13T11:05:37.967Z,97340.89
2019-01-13T11:07:19.365Z,97341.48
2019-01-13T11:08:57.692Z,97345.55
2019-01-13T11:10:41.062Z,97346.70
2019-01-13T11:12:20.291Z,97348.98
2019-01-13T11:14:05.381Z,97336.34
2019-01-13T11:15:45.255Z,97331.75
2019-01-13T11:17:26.498Z,97342.96
2019-01-13T11:19:07.553Z,97333.05
2019-01-13T11:20:50.528Z,97333.41
2019-01-13T11:22:29.329Z,97322.94
2019-01-13T11:24:12.418Z,97315.52
2019-01-13T11:25:51.918Z,97321.77
2019-01-13T11:27:31.868Z,97321.36
2019-01-13T11:29:21.979Z,97311.67
2019-01-13T11:30:54.704Z,97315.70
2019-01-13T11:32:35.226Z,97310.39
2019-01-13T11:34:31.932Z,97303.84
2019-01-13T11:36:23.616Z,97312.95
2019-01-13T11:38:03.859Z,97317.62
2019-01-13T11:39:45.740Z,97320.92
2019-01-13T11:41:32.605Z,97321.52
2019-01-13T11:43:15.111Z,97325.63
2019-01-13T11:44:57.087Z,97316.33
2019-01-13T11:46:45.766Z,97311.67
2019-01-13T11:48:25.485Z,97319.45
2019-01-13T11:50:01.224Z,97314.83
2019-01-13T11:51:40.350Z,97303.95
2019-01-13T11:53:24.197Z,97301.08
2019-01-13T11:55:00.715Z,97303.43
2019-01-13T11:56:39.278Z,97301.48
2019-01-13T11:58:16.711Z,97297.00
2019-01-13T11:59:54.502Z,97301.67
2019-01-13T12:01:49.482Z,97299.72
2019-01-13T12:03:48.479Z,97303.55
2019-01-13T12:05:31.948Z,97306.52
2019-01-13T12:07:27.124Z,97305.93
2019-01-13T12:09:10.572Z,97292.86
2019-01-13T12:11:00.524Z,97301.78
2019-01-13T12:12:44.624Z,97291.69
2019-01-13T12:14:30.347Z,97297.70
2019-01-13T12:16:15.788Z,97303.52
2019-01-13T12:18:01.037Z,97288.37
2019-01-13T12:19:45.229Z,97300.61
2019-01-13T12:21:32.124Z,97300.25
2019-01-13T12:23:11.987Z,97292.27
2019-01-13T12:24:48.096Z,97293.63
2019-01-13T12:26:24.089Z,97284.89
2019-01-13T12:28:04.078Z,97289.55
2019-01-13T12:29:43.399Z,97292.05
2019-01-13T12:31:26.808Z,97276.92
2019-01-13T12:33:05.753Z,97279.05
2019-01-13T12:34:45.968Z,97279.23
2019-01-13T12:36:27.987Z,97279.42
2019-01-13T12:38:14.898Z,97278.06
2019-01-13T12:39:55.463Z,97274.79
2019-01-13T12:41:40.120Z,97266.82
2019-01-13T12:43:15.704Z,97269.53
2019-01-13T12:45:03.743Z,97270.34
2019-01-13T12:46:45.015Z,97263.91
2019-01-13T12:48:25.507Z,97253.63
2019-01-13T12:50:05.186Z,97260.02
2019-01-13T12:51:49.001Z,97240.23
2019-01-13T12:53:26.049Z,97240.81
2019-01-13T12:55:08.037Z,97251.28
2019-01-13T12:56:49.628Z,97257.30
2019-01-13T12:58:42.838Z,97260.98
2019-01-13T13:00:21.762Z,97254.77
2019-01-13T13:02:04.893Z,97245.08
2019-01-13T13:03:54.424Z,97251.28
2019-01-13T13:05:42.912Z,97237.51
2019-01-13T13:07:28.970Z,97235.38
2019-01-13T13:09:21.478Z,97239.64
2019-01-13T13:11:00.791Z,97235.74
2019-01-13T13:12:40.787Z,97241.41
2019-01-13T13:14:25.363Z,97238.87
2019-01-13T13:16:02.603Z,97254.19
2019-01-13T13:17:40.934Z,97243.53
2019-01-13T13:19:24.863Z,97245.84
2019-01-13T13:21:13.351Z,97246.25
2019-01-13T13:23:04.303Z,97239.82
2019-01-13T13:24:43.280Z,97239.82
2019-01-13T13:26:26.453Z,97233.61
2019-01-13T13:28:08.291Z,97238.64
2019-01-13T13:29:52.815Z,97233.43
2019-01-13T13:31:39.140Z,97223.33
2019-01-13T13:35:19.779Z,97227.77
2019-01-13T13:37:01.573Z,97211.50
2019-01-13T13:38:40.644Z,97216.35
2019-01-13T13:40:23.340Z,97213.81
2019-01-13T13:42:07.606Z,97210.33
2019-01-13T13:43:47.234Z,97206.66
2019-01-13T13:45:24.439Z,97210.91
2019-01-13T13:47:03.263Z,97214.41
2019-01-13T13:48:56.463Z,97224.51
2019-01-13T13:50:36.210Z,97236.33
2019-01-13T13:52:19.728Z,97214.99
2019-01-13T13:53:59.771Z,97217.53
2019-01-13T13:55:48.760Z,97221.79
2019-01-13T13:57:38.780Z,97213.63
2019-01-13T13:59:31.528Z,97216.17
2019-01-13T14:01:30.012Z,97218.48
2019-01-13T14:03:29.256Z,97222.38
2019-01-13T14:05:19.062Z,97203.17
2019-01-13T14:07:23.941Z,97191.53
2019-01-13T14:09:09.845Z,97197.33
2019-01-13T14:10:47.820Z,97187.05
2019-01-13T14:12:31.389Z,97199.68
2019-01-13T14:14:11.722Z,97196.55
2019-01-13T14:15:49.295Z,97199.86
2019-01-13T14:17:30.403Z,97202.40
2019-01-13T14:19:25.250Z,97205.30
2019-01-13T14:21:06.224Z,97197.33
2019-01-13T14:22:42.153Z,97190.94
2019-01-13T14:24:36.227Z,97185.50
2019-01-13T14:26:16.700Z,97180.25
2019-01-13T14:28:02.504Z,97183.55
2019-01-13T14:29:48.395Z,97185.14
2019-01-13T14:31:28.358Z,97185.91
2019-01-13T14:33:11.745Z,97187.27
2019-01-13T14:34:49.865Z,97192.52
2019-01-13T14:36:28.122Z,97203.75
2019-01-13T14:38:04.821Z,97183.78
2019-01-13T14:39:54.576Z,97186.50
2019-01-13T14:41:37.710Z,97173.50
2019-01-13T14:43:22.212Z,97163.98
2019-01-13T14:45:17.098Z,97159.32
2019-01-13T14:47:17.638Z,97155.68
2019-01-13T14:49:04.115Z,97161.27
2019-01-13T14:50:52.465Z,97165.34
2019-01-13T14:52:34.699Z,97168.06
2019-01-13T14:54:22.521Z,97169.42
2019-01-13T14:56:01.800Z,97170.04
2019-01-13T14:57:38.180Z,97174.11
2019-01-13T14:59:21.825Z,97168.68
2019-01-13T15:01:02.713Z,97173.50
2019-01-13T15:02:38.319Z,97173.34
2019-01-13T15:04:15.833Z,97191.16
2019-01-13T15:06:03.999Z,97186.16
2019-01-13T15:07:40.939Z,97193.73
2019-01-13T15:09:20.445Z,97197.03
2019-01-13T15:10:58.718Z,97191.02
2019-01-13T15:12:41.550Z,97187.52
2019-01-13T15:14:20.913Z,97182.86
2019-01-13T15:16:03.900Z,97186.34
2019-01-13T15:17:46.874Z,97179.95
2019-01-13T15:19:24.336Z,97200.93
2019-01-13T15:21:02.952Z,97190.05
2019-01-13T15:22:39.725Z,97177.83
2019-01-13T15:24:16.958Z,97196.85
2019-01-13T15:25:56.258Z,97200.52
2019-01-13T15:27:33.672Z,97211.80
2019-01-13T15:29:12.418Z,97205.19
2019-01-13T15:30:52.551Z,97209.45
2019-01-13T15:32:31.493Z,97200.67
2019-01-13T15:34:16.719Z,97195.86
2019-01-13T15:36:03.374Z,97193.73
2019-01-13T15:37:44.537Z,97192.95
2019-01-13T15:39:20.545Z,97186.75
2019-01-13T15:41:05.456Z,97198.98
2019-01-13T15:42:47.432Z,97205.00
2019-01-13T15:44:25.012Z,97198.98
2019-01-13T15:46:01.615Z,97212.39
2019-01-13T15:47:39.768Z,97217.23
2019-01-13T15:49:16.705Z,97203.06
2019-01-13T15:50:56.209Z,97212.75
2019-01-13T15:52:32.730Z,97222.27
2019-01-13T15:54:19.106Z,97220.14
2019-01-13T15:56:09.278Z,97224.39
2019-01-13T15:57:48.859Z,97234.06
2019-01-13T15:59:30.368Z,97238.32
2019-01-13T16:01:12.619Z,97239.27
2019-01-13T16:02:56.391Z,97240.63
2019-01-13T16:04:45.171Z,97258.30
2019-01-13T16:06:39.509Z,97243.94
2019-01-13T16:08:18.013Z,97245.11
2019-01-13T16:09:59.048Z,97264.91
2019-01-13T16:11:35.487Z,97265.09
2019-01-13T16:13:12.684Z,97272.66
2019-01-13T16:14:48.907Z,97273.25
2019-01-13T16:16:27.081Z,97260.83
2019-01-13T16:18:10.049Z,97254.29
2019-01-13T16:19:53.398Z,97258.95
2019-01-13T16:21:40.102Z,97268.69
2019-01-13T16:23:25.493Z,97264.02
2019-01-13T16:25:08.117Z,97252.42
2019-01-13T16:26:56.485Z,97254.37
2019-01-13T16:28:45.841Z,97260.20
2019-01-13T16:30:25.208Z,97247.02
2019-01-13T16:32:17.937Z,97243.72
2019-01-13T16:34:04.358Z,97248.97
2019-01-13T16:35:53.526Z,97234.27
2019-01-13T16:37:37.526Z,97251.17
2019-01-13T16:39:15.639Z,97247.09
2019-01-13T16:40:52.908Z,97232.37
2019-01-13T16:42:33.934Z,97231.01
2019-01-13T16:44:24.701Z,97223.27
2019-01-13T16:46:02.761Z,97221.31
2019-01-13T16:47:47.215Z,97216.47
2019-01-13T16:49:30.624Z,97214.16
2019-01-13T16:51:12.075Z,97210.64
2019-01-13T16:52:56.553Z,97210.64
2019-01-13T16:54:34.311Z,97199.21
2019-01-13T16:56:14.977Z,97196.50
2019-01-13T16:57:55.390Z,97194.92
2019-01-13T16:59:35.812Z,97192.20
2019-01-13T17:01:22.602Z,97190.08
2019-01-13T17:03:02.520Z,97171.65
2019-01-13T17:04:42.197Z,97185.23
2019-01-13T17:06:28.496Z,97180.80
2019-01-13T17:08:12.460Z,97182.34
2019-01-13T17:09:52.885Z,97180.20
2019-01-13T17:11:30.495Z,97176.91
2019-01-13T17:13:11.582Z,97165.45
2019-01-13T17:14:49.747Z,97160.78
2019-01-13T17:16:38.325Z,97150.91
2019-01-13T17:18:15.251Z,97140.88
2019-01-13T17:19:56.579Z,97136.44
2019-01-13T17:21:34.902Z,97130.65
2019-01-13T17:23:12.344Z,97131.23
2019-01-13T17:24:51.829Z,97116.11
2019-01-13T17:26:31.997Z,97140.60
2019-01-13T17:28:12.762Z,97116.45
2019-01-13T17:30:05.970Z,97111.02
2019-01-13T17:31:51.318Z,97110.80
2019-01-13T17:33:30.522Z,97099.94
2019-01-13T17:35:07.708Z,97096.63
2019-01-13T17:36:46.707Z,97096.45
2019-01-13T17:38:22.504Z,97109.44
2019-01-13T17:39:57.843Z,97093.14
2019-01-13T17:41:34.126Z,97095.86
2019-01-13T17:43:15.257Z,97096.19
2019-01-13T17:45:16.648Z,97101.03
2019-01-13T17:46:58.927Z,97087.05
2019-01-13T17:48:39.133Z,97063.02
2019-01-13T17:50:17.021Z,97059.12
2019-01-13T17:51:53.093Z,97051.37
2019-01-13T17:53:28.579Z,97044.84
2019-01-13T17:55:07.795Z,97038.05
2019-01-13T17:56:49.153Z,97032.03
2019-01-13T17:58:24.914Z,97012.84
2019-01-13T18:00:18.215Z,97016.33
2019-01-13T18:02:00.130Z,97021.98
2019-01-13T18:03:38.621Z,97017.50
2019-01-13T18:05:18.064Z,97009.00
2019-01-13T18:06:56.437Z,96996.00
2019-01-13T18:08:34.801Z,96994.11
2019-01-13T18:10:12.337Z,96989.66
2019-01-13T18:11:51.498Z,96990.47
2019-01-13T18:13:29.298Z,96986.25
2019-01-13T18:15:24.144Z,96970.88
2019-01-13T18:17:08.447Z,96973.59
2019-01-13T18:18:45.719Z,96950.70
2019-01-13T18:20:31.821Z,96960.56
2019-01-13T18:22:10.271Z,96955.13
2019-01-13T18:23:53.321Z,96940.02
2019-01-13T18:25:30.604Z,96960.56
2019-01-13T18:27:07.863Z,96951.06
2019-01-13T18:28:43.813Z,96948.89
2019-01-13T18:30:26.442Z,96934.72
2019-01-13T18:32:05.816Z,96926.76
2019-01-13T18:33:45.466Z,96932.59
2019-01-13T18:35:23.204Z,96922.09
2019-01-13T18:37:01.098Z,96911.59
2019-01-13T18:38:42.282Z,96898.42
2019-01-13T18:40:23.527Z,96892.64
2019-01-13T18:42:06.201Z,96909.34
2019-01-13T18:43:45.594Z,96899.25
2019-01-13T18:45:32.340Z,96879.30
2019-01-13T18:47:11.566Z,96887.26
2019-01-13T18:48:53.752Z,96897.53
2019-01-13T18:50:33.186Z,96910.52
2019-01-13T18:52:09.807Z,96883.36
2019-01-13T18:53:49.913Z,96860.55
2019-01-13T18:55:34.441Z,96807.58
2019-01-13T18:57:16.709Z,96811.84
2019-01-13T18:58:58.224Z,96819.75
2019-01-13T19:00:36.514Z,96815.02
2019-01-13T19:02:14.130Z,96814.00
2019-01-13T19:03:57.206Z,96809.14
2019-01-13T19:05:38.550Z,96803.32
2019-01-13T19:07:14.010Z,96799.02
2019-01-13T19:08:51.370Z,96804.21
2019-01-13T19:10:52.108Z,96800.70
2019-01-13T19:12:37.450Z,96785.41
2019-01-13T19:14:34.363Z,96776.48
2019-01-13T19:16:12.933Z,96778.57
2019-01-13T19:17:49.481Z,96773.00
2019-01-13T19:19:31.090Z,96783.83
2019-01-13T19:21:09.277Z,96782.23
2019-01-13T19:23:01.095Z,96773.92
2019-01-13T19:24:49.178Z,96777.55
2019-01-13T19:26:25.717Z,96766.53
2019-01-13T19:28:01.016Z,96754.34
2019-01-13T19:29:36.339Z,96769.42
2019-01-13T19:31:11.846Z,96766.89
2019-01-13T19:32:51.955Z,96762.25
2019-01-13T19:34:28.322Z,96770.15
2019-01-13T19:36:05.275Z,96752.36
2019-01-13T19:37:41.905Z,96758.55